Pine Hills, Florida
Current Conditions -  °F | °C
As of 8:53 AM on Friday 24 Oct 2014 (Local Time) from KORL Reporting Station
Clear Clear  
Wind Chill: 68°   Ceiling: Unl
Heat Index: 68°   Visibility: 10mi
Dew Point: 57°   Wind: 12mph
Humidity: 68%   Direction: 10°N
Pressure: 29.99"   Gusts: NA
Location:  28.55°N, 81.45°W
Report Text: KORL 241253Z 01010KT 10SM CLR 20/14 A2999 RMK AO2 SLP159 T02000139
Loading
Personal Weather Stations






























Interactive Weather Map New forecast layout! Learn more

10-Day Weather Forecast

Advertisements
Track Severe Weather on mobile